ADDS METAR Data INFO
IDs: Format: Raw Decoded Include TAF

Data at: 1716 UTC 23 Oct 2017

KSAF 231653Z 01012KT 10SM CLR 15/M04 A3043 RMK AO2 SLP251 T01501044
KSAF 231553Z 35015KT 10SM CLR 12/M04 A3044 RMK AO2 SLP259 T01171039
KSAF 231453Z 02011KT 10SM CLR 09/M04 A3040 RMK AO2 SLP254 T00941039 53005
KSAF 231353Z 01009KT 10SM CLR 06/M04 A3039 RMK AO2 SLP251 T00561044
KSAF 231253Z AUTO VRB03KT 10SM CLR 06/M04 A3038 RMK AO2 SLP240 T00561044
KSAF 231153Z AUTO 11004KT 10SM CLR 03/M04 A3039 RMK AO2 SLP239 T00331044 10100 20033 53004
KSAF 231053Z AUTO 00000KT 10SM CLR 07/M05 A3038 RMK AO2 SLP227 T00721050
KSAF 230953Z AUTO 00000KT 10SM CLR 07/M04 A3037 RMK AO2 SLP224 T00721044
KSAF 230853Z AUTO 29005KT 10SM CLR 08/M05 A3037 RMK AO2 SLP221 T00831050 53001
KSAF 230753Z AUTO 34006KT 10SM CLR 07/M04 A3036 RMK AO2 SLP229 T00721044
KSAF 230653Z AUTO 32005KT 10SM CLR 08/M05 A3036 RMK AO2 SLP229 T00831050 401780006
KSAF 230553Z AUTO 36008KT 10SM CLR 10/M04 A3037 RMK AO2 SLP225 T01001044 10161 20061 50002
KSAF 230453Z AUTO 36007KT 10SM CLR 07/M04 A3037 RMK AO2 SLP240 T00721039
KSAF 230353Z AUTO 36009KT 10SM CLR 08/M03 A3037 RMK AO2 SLP242 T00781033
KSAF 230253Z 34006KT 10SM CLR 07/M04 A3036 RMK AO2 SLP247 T00671039 50009
KSAF 230153Z 36005KT 10SM CLR 10/M04 A3036 RMK AO2 SLP250 T01001044
KSAF 230053Z 27004KT 10SM CLR 13/M06 A3034 RMK AO2 SLP235 T01331056
KSAF 222353Z 27004KT 10SM CLR 16/M06 A3033 RMK AO2 SLP216 T01611061 10178 20122 55003
KSAF 222253Z 00000KT 10SM CLR 17/M08 A3032 RMK AO2 SLP214 T01671078
KSAF 222153Z 00000KT 10SM CLR 17/M08 A3032 RMK AO2 SLP224 T01671083
KSAF 222053Z VRB05KT 10SM CLR 17/M08 A3034 RMK AO2 SLP220 T01671083 58021
KSAF 221953Z 00000KT 10SM CLR 14/M10 A3037 RMK AO2 SLP236 T01391100
KSAF 221853Z 21010KT 10SM CLR 13/M11 A3039 RMK AO2 SLP251 T01281111
KSAF 221753Z 36009KT 10SM CLR 13/M12 A3041 RMK AO2 SLP257 T01281117 10128 20006 50006
KSAF 221653Z 35010KT 10SM CLR 11/M12 A3042 RMK AO2 SLP262 T01061122
KSAF 221553Z 34010KT 10SM CLR 09/M13 A3040 RMK AO2 SLP263 T00891128
KSAF 221453Z 34010KT 10SM CLR 07/M13 A3039 RMK AO2 SLP264 T00671133 53012
KSAF 221353Z 33006KT 10SM CLR 02/M13 A3037 RMK AO2 SLP263 T00221128
KSAF 221253Z AUTO 02010KT 10SM CLR 02/M13 A3036 RMK AO2 SLP251 T00221128
KSAF 221153Z AUTO 32010KT 10SM CLR 04/M14 A3035 RMK AO2 SLP232 T00441139 10050 20011 51013
KSAF 221053Z AUTO 35011KT 10SM CLR 04/M13 A3034 RMK AO2 SLP226 T00391133
KSAF 220953Z AUTO 36007KT 10SM CLR 01/M13 A3032 RMK AO2 SLP221 T00111128
KSAF 220853Z AUTO 36009KT 10SM CLR 04/M14 A3030 RMK AO2 SLP207 T00391139 51007
KSAF 220753Z AUTO 36011KT 10SM CLR 04/M14 A3029 RMK AO2 SLP204 T00441144
KSAF 220653Z AUTO 33006KT 10SM CLR 03/M13 A3029 RMK AO2 SLP204 T00281133 401720022
KSAF 220553Z AUTO 35008KT 10SM CLR 04/M14 A3027 RMK AO2 SLP206 T00391139 10128 20022 51014